Time;durP1;ratioP1;P1;durP2;ratioP2;P2;SDS_P1;SDS_P2;PMS_P1;PMS_P2;Temp;Humidity;BMP_temperature;BMP_pressure;BME280_temperature;BME280_humidity;BME280_pressure;Samples;Min_cycle;Max_cycle;Signal;HPM_P1;HPM_P2
2021/10/25 00:01:22;;;;;;;6.85;5.93;;;6.90;99.90;;;;;;5095189;28;20059;-74
2021/10/25 00:03:47;;;;;;;7.90;6.05;;;6.90;99.90;;;;;;5095631;28;20048;-74
2021/10/25 00:06:13;;;;;;;7.10;6.05;;;6.80;99.90;;;;;;5076652;28;20036;-77
2021/10/25 00:08:39;;;;;;;7.55;6.05;;;6.80;99.90;;;;;;5095789;28;20507;-75
2021/10/25 00:11:04;;;;;;;7.22;6.13;;;6.80;99.90;;;;;;5095432;28;20051;-74
2021/10/25 00:13:30;;;;;;;6.55;5.75;;;6.80;99.90;;;;;;5076800;28;20020;-75
2021/10/25 00:15:56;;;;;;;8.02;5.90;;;6.80;99.90;;;;;;5095308;28;20024;-74
2021/10/25 00:18:21;;;;;;;11.60;6.63;;;6.80;99.90;;;;;;5095620;28;20456;-77
2021/10/25 00:20:47;;;;;;;9.75;5.90;;;6.70;99.90;;;;;;5095010;28;20028;-73
2021/10/25 00:23:13;;;;;;;8.32;6.68;;;6.70;99.90;;;;;;5076988;28;20115;-74
2021/10/25 00:25:38;;;;;;;6.72;6.03;;;6.70;99.90;;;;;;5095574;28;20038;-72
2021/10/25 00:28:04;;;;;;;7.78;6.25;;;6.60;99.90;;;;;;5076119;28;20480;-73
2021/10/25 00:30:29;;;;;;;8.50;6.40;;;6.60;99.90;;;;;;5095423;28;20032;-73
2021/10/25 00:32:55;;;;;;;9.20;7.20;;;6.60;99.90;;;;;;5095216;28;20101;-74
2021/10/25 00:35:21;;;;;;;7.20;6.50;;;6.60;99.90;;;;;;5094634;28;20035;-74
2021/10/25 00:37:47;;;;;;;6.70;5.95;;;6.60;99.90;;;;;;5095205;28;20020;-76
2021/10/25 00:40:13;;;;;;;7.90;6.68;;;6.50;99.90;;;;;;5094955;28;20020;-78
2021/10/25 00:42:39;;;;;;;7.40;6.25;;;6.50;99.90;;;;;;5094417;28;20083;-73
2021/10/25 00:45:05;;;;;;;8.57;6.63;;;6.50;99.90;;;;;;5094354;28;20036;-78
2021/10/25 00:47:31;;;;;;;7.80;6.85;;;6.40;99.90;;;;;;5095265;28;20069;-74
2021/10/25 00:49:56;;;;;;;10.10;7.45;;;6.40;99.90;;;;;;5093961;28;20418;-74
2021/10/25 00:52:22;;;;;;;7.72;6.18;;;6.40;99.90;;;;;;5076792;28;20035;-73
2021/10/25 00:54:47;;;;;;;9.07;6.70;;;6.40;99.90;;;;;;5076723;28;20020;-73
2021/10/25 00:57:13;;;;;;;8.00;7.03;;;6.30;99.90;;;;;;5093928;28;20032;-74
2021/10/25 00:59:38;;;;;;;7.13;5.85;;;6.40;99.90;;;;;;5096663;28;20016;-71
2021/10/25 01:02:04;;;;;;;9.07;6.25;;;6.40;99.90;;;;;;5081102;28;20028;-71
2021/10/25 01:04:31;;;;;;;6.60;5.70;;;6.30;99.90;;;;;;5096658;28;20031;-74
2021/10/25 01:06:58;;;;;;;7.97;6.18;;;6.30;99.90;;;;;;5096112;28;20035;-76
2021/10/25 01:09:24;;;;;;;6.80;5.57;;;6.30;99.90;;;;;;5076807;28;20048;-77
2021/10/25 01:11:50;;;;;;;6.97;6.00;;;6.30;99.90;;;;;;5094776;28;20052;-75
2021/10/25 01:14:17;;;;;;;8.10;6.50;;;6.30;99.90;;;;;;5075946;28;20540;-75
2021/10/25 01:16:42;;;;;;;8.65;6.40;;;6.30;99.90;;;;;;5093913;28;20032;-74
2021/10/25 01:19:08;;;;;;;6.53;5.85;;;6.30;99.90;;;;;;5094210;28;20125;-74
2021/10/25 01:21:33;;;;;;;7.45;5.90;;;6.30;99.90;;;;;;5094353;28;20028;-74
2021/10/25 01:23:59;;;;;;;6.60;5.93;;;6.30;99.90;;;;;;5075303;28;20051;-73
2021/10/25 01:26:25;;;;;;;6.65;5.93;;;6.30;99.90;;;;;;5076130;28;20396;-73
2021/10/25 01:28:53;;;;;;;8.00;6.03;;;6.40;99.90;;;;;;5093673;28;20044;-74
2021/10/25 01:31:20;;;;;;;8.43;6.35;;;6.40;99.90;;;;;;5075024;28;20020;-73
2021/10/25 01:33:48;;;;;;;6.53;5.45;;;6.30;99.90;;;;;;5094004;28;20055;-77
2021/10/25 01:36:14;;;;;;;6.20;5.13;;;6.30;99.90;;;;;;5077501;28;20032;-75
2021/10/25 01:38:40;;;;;;;6.13;5.47;;;6.40;99.90;;;;;;5075201;28;20071;-77
2021/10/25 01:41:06;;;;;;;7.95;5.80;;;6.30;99.90;;;;;;5075396;28;20023;-74
2021/10/25 01:43:34;;;;;;;6.57;5.95;;;6.40;99.90;;;;;;5094505;28;20024;-78
2021/10/25 01:45:59;;;;;;;6.82;5.90;;;6.40;99.90;;;;;;5074633;28;20043;-77
2021/10/25 01:48:25;;;;;;;6.93;6.10;;;6.40;99.90;;;;;;5093902;28;20020;-78
2021/10/25 01:50:50;;;;;;;5.88;5.28;;;6.40;99.90;;;;;;5075754;28;20024;-78
2021/10/25 01:53:16;;;;;;;6.95;5.78;;;6.40;99.90;;;;;;5092583;28;20050;-75
2021/10/25 01:55:43;;;;;;;6.95;5.53;;;6.40;99.90;;;;;;5093980;28;20016;-76
2021/10/25 01:58:08;;;;;;;6.88;5.70;;;6.40;99.90;;;;;;5093358;28;20464;-74
2021/10/25 02:00:34;;;;;;;6.72;5.47;;;6.40;99.90;;;;;;5074673;28;20102;-78
2021/10/25 02:02:59;;;;;;;6.32;5.72;;;6.40;99.90;;;;;;5093057;28;20024;-74
2021/10/25 02:05:25;;;;;;;6.07;4.90;;;6.50;99.90;;;;;;5093747;28;20036;-79
2021/10/25 02:07:51;;;;;;;6.72;5.30;;;6.60;99.90;;;;;;5074863;28;20042;-76
2021/10/25 02:10:16;;;;;;;6.55;5.45;;;6.70;99.90;;;;;;5093116;28;20024;-80
2021/10/25 02:12:42;;;;;;;7.30;5.85;;;6.80;99.90;;;;;;5092669;28;20016;-79
2021/10/25 02:15:08;;;;;;;6.53;5.82;;;6.90;99.90;;;;;;5074994;28;20020;-74
2021/10/25 02:17:34;;;;;;;7.47;6.32;;;7.00;99.90;;;;;;5093311;28;20016;-76
2021/10/25 02:19:59;;;;;;;6.07;5.30;;;7.10;99.90;;;;;;5092272;28;20039;-76
2021/10/25 02:22:25;;;;;;;7.22;5.38;;;7.10;99.90;;;;;;5093389;28;20032;-73
2021/10/25 02:24:51;;;;;;;6.53;5.15;;;7.20;99.90;;;;;;5093230;28;20016;-76
2021/10/25 02:27:16;;;;;;;7.18;5.22;;;7.20;99.90;;;;;;5092278;28;20028;-74
2021/10/25 02:29:42;;;;;;;5.47;4.70;;;7.30;99.90;;;;;;5074924;28;20484;-75
2021/10/25 02:32:09;;;;;;;5.90;4.97;;;7.40;99.90;;;;;;5092748;28;20032;-74
2021/10/25 02:34:35;;;;;;;11.88;5.82;;;7.40;99.90;;;;;;5074317;28;20459;-75
2021/10/25 02:37:01;;;;;;;6.82;5.70;;;7.50;99.90;;;;;;5074797;28;20051;-74
2021/10/25 02:39:30;;;;;;;6.60;4.97;;;7.50;99.90;;;;;;5071550;28;20117;-75
2021/10/25 02:41:56;;;;;;;5.80;5.20;;;7.60;99.90;;;;;;5074792;28;20048;-73
2021/10/25 02:44:25;;;;;;;7.95;5.43;;;7.60;99.90;;;;;;5074771;28;20123;-76
2021/10/25 02:46:52;;;;;;;6.65;5.47;;;7.70;99.90;;;;;;5093187;28;20377;-78
2021/10/25 02:49:18;;;;;;;6.10;4.80;;;7.70;99.90;;;;;;5093336;28;20425;-78
2021/10/25 02:51:43;;;;;;;5.70;5.13;;;7.70;99.90;;;;;;5093025;28;20020;-74
2021/10/25 02:54:09;;;;;;;6.15;5.28;;;7.80;99.90;;;;;;5092021;28;20025;-75
2021/10/25 02:56:34;;;;;;;6.13;5.53;;;7.80;99.90;;;;;;5092929;28;20032;-78
2021/10/25 02:59:00;;;;;;;6.05;5.40;;;7.80;99.90;;;;;;5074357;28;20016;-75
2021/10/25 03:01:26;;;;;;;5.80;4.85;;;7.90;99.90;;;;;;5091898;28;20027;-79
2021/10/25 03:03:51;;;;;;;6.88;4.88;;;7.90;99.90;;;;;;5092661;28;20031;-79
2021/10/25 03:06:17;;;;;;;7.05;5.43;;;7.90;99.90;;;;;;5074289;28;20029;-75
2021/10/25 03:08:43;;;;;;;5.78;5.25;;;7.90;99.90;;;;;;5073845;28;20464;-74
2021/10/25 03:11:09;;;;;;;6.45;5.18;;;8.00;99.90;;;;;;5092406;28;20024;-76
2021/10/25 03:13:35;;;;;;;5.85;5.13;;;8.00;99.90;;;;;;5089071;28;20028;-78
2021/10/25 03:16:00;;;;;;;6.22;5.57;;;8.00;99.90;;;;;;5070526;28;20020;-77
2021/10/25 03:18:26;;;;;;;6.55;5.85;;;8.00;99.90;;;;;;5079939;28;20410;-75
2021/10/25 03:20:52;;;;;;;7.03;5.72;;;8.10;99.90;;;;;;5080415;28;20050;-77
2021/10/25 03:23:18;;;;;;;6.13;5.28;;;8.10;99.90;;;;;;5091604;28;20027;-77
2021/10/25 03:25:44;;;;;;;5.32;4.82;;;8.10;99.90;;;;;;5092520;28;20036;-77
2021/10/25 03:28:10;;;;;;;6.43;5.00;;;8.20;99.90;;;;;;5092069;28;20052;-75
2021/10/25 03:30:36;;;;;;;6.68;5.65;;;8.20;99.90;;;;;;5091634;28;20028;-74
2021/10/25 03:33:02;;;;;;;6.60;5.57;;;8.20;99.90;;;;;;5091992;28;20047;-75
2021/10/25 03:35:28;;;;;;;8.15;4.88;;;8.20;99.90;;;;;;5091803;28;20115;-72
2021/10/25 03:37:55;;;;;;;5.13;4.63;;;8.30;99.90;;;;;;5092541;28;20095;-77
2021/10/25 03:40:22;;;;;;;5.65;4.45;;;8.30;99.90;;;;;;5092388;28;20025;-78
2021/10/25 03:42:50;;;;;;;6.68;4.60;;;8.40;99.90;;;;;;5091638;28;20021;-73
2021/10/25 03:45:34;;;;;;;4.95;4.45;;;8.40;99.90;;;;;;5073817;28;20036;-79
2021/10/25 03:48:06;;;;;;;5.57;4.70;;;8.40;99.90;;;;;;5074471;28;20028;-74
2021/10/25 03:50:34;;;;;;;5.05;4.60;;;8.40;99.90;;;;;;5092281;28;20415;-79
2021/10/25 03:53:12;;;;;;;5.00;4.50;;;8.50;99.90;;;;;;5095767;28;20024;-79
2021/10/25 03:55:51;;;;;;;5.07;4.57;;;8.50;99.90;;;;;;5096207;28;20467;-75
2021/10/25 04:25:43;;;;;;;5.57;4.50;;;8.70;99.90;;;;;;5074447;28;20079;-76
2021/10/25 04:28:09;;;;;;;5.40;4.75;;;8.80;99.90;;;;;;5073371;28;20075;-74
2021/10/25 04:30:36;;;;;;;5.97;4.97;;;8.70;99.90;;;;;;5075186;28;20024;-74
2021/10/25 04:33:03;;;;;;;4.80;4.30;;;8.80;99.90;;;;;;5074088;28;20035;-73
2021/10/25 04:35:29;;;;;;;5.22;4.20;;;8.80;99.90;;;;;;5055905;28;20377;-73
2021/10/25 04:37:55;;;;;;;6.70;4.60;;;8.80;99.90;;;;;;5073958;28;20029;-75
2021/10/25 04:40:21;;;;;;;5.43;4.75;;;8.80;99.90;;;;;;5074262;28;20025;-76
2021/10/25 04:42:46;;;;;;;4.55;4.13;;;8.80;99.90;;;;;;5074689;28;20505;-75
2021/10/25 04:45:13;;;;;;;5.55;4.35;;;8.90;99.90;;;;;;5056586;28;20065;-76
2021/10/25 04:47:38;;;;;;;5.25;4.07;;;8.90;99.90;;;;;;5056241;28;20503;-77
2021/10/25 04:50:06;;;;;;;9.57;4.85;;;8.90;99.90;;;;;;5074475;28;20020;-76
2021/10/25 04:52:31;;;;;;;6.63;5.00;;;8.90;99.90;;;;;;5056787;28;20441;-74
2021/10/25 04:54:57;;;;;;;5.78;4.93;;;8.90;99.90;;;;;;5055389;28;20055;-74
2021/10/25 04:57:23;;;;;;;7.70;5.07;;;9.00;99.90;;;;;;5074212;28;20036;-75
2021/10/25 04:59:48;;;;;;;5.78;4.07;;;9.00;99.90;;;;;;5073771;28;20017;-77
2021/10/25 05:02:15;;;;;;;4.80;4.30;;;9.00;99.90;;;;;;5073445;28;20031;-74
2021/10/25 05:04:41;;;;;;;5.68;4.63;;;9.00;99.90;;;;;;5074454;28;20047;-74
2021/10/25 05:07:06;;;;;;;8.73;4.72;;;9.00;99.90;;;;;;5055594;28;20062;-76
2021/10/25 05:09:33;;;;;;;7.10;4.95;;;9.00;99.90;;;;;;5073886;28;20059;-74
2021/10/25 05:11:59;;;;;;;5.57;4.88;;;9.00;99.90;;;;;;5056138;28;20024;-75
2021/10/25 05:14:25;;;;;;;5.35;4.85;;;9.00;99.90;;;;;;5073546;28;20091;-79
2021/10/25 05:16:50;;;;;;;6.25;4.43;;;9.00;99.90;;;;;;5074270;28;20098;-75
2021/10/25 05:19:16;;;;;;;6.38;5.03;;;9.10;99.90;;;;;;5073926;28;20021;-79
2021/10/25 05:21:41;;;;;;;5.72;4.95;;;9.10;99.90;;;;;;5055476;28;20123;-77
2021/10/25 05:24:07;;;;;;;6.80;4.70;;;9.10;99.90;;;;;;5055875;28;20027;-74
2021/10/25 05:26:33;;;;;;;5.80;5.00;;;9.10;99.90;;;;;;5055911;28;20111;-75
2021/10/25 05:28:59;;;;;;;6.05;4.75;;;9.10;99.90;;;;;;5051792;28;20539;-77
2021/10/25 05:31:24;;;;;;;5.47;4.88;;;9.10;99.90;;;;;;5054081;28;20047;-76
2021/10/25 05:33:50;;;;;;;4.70;4.22;;;9.10;99.90;;;;;;5052565;28;20496;-74
2021/10/25 05:36:17;;;;;;;4.72;4.22;;;9.10;99.90;;;;;;5051696;28;20025;-80
2021/10/25 05:38:42;;;;;;;6.65;4.25;;;9.10;99.90;;;;;;5052615;28;20048;-75
2021/10/25 05:41:09;;;;;;;9.63;5.75;;;9.20;99.90;;;;;;5052157;28;20468;-79
2021/10/25 05:43:35;;;;;;;10.60;5.55;;;9.20;99.90;;;;;;5053000;28;20082;-79
2021/10/25 05:46:01;;;;;;;5.25;4.03;;;9.20;99.90;;;;;;5053468;28;20036;-79
2021/10/25 05:48:27;;;;;;;5.82;4.63;;;9.20;99.90;;;;;;5053771;28;20104;-76
2021/10/25 05:50:54;;;;;;;4.10;3.70;;;9.20;99.90;;;;;;5052949;28;20051;-78
2021/10/25 05:53:19;;;;;;;6.88;5.30;;;9.30;99.90;;;;;;5052248;28;20028;-75
2021/10/25 05:55:46;;;;;;;5.80;5.07;;;9.30;99.90;;;;;;5053546;28;20029;-79
2021/10/25 05:58:21;;;;;;;5.43;4.57;;;9.30;99.90;;;;;;5052521;28;20025;-78
2021/10/25 06:00:52;;;;;;;5.25;4.30;;;9.30;99.90;;;;;;5053738;28;20522;-80
2021/10/25 06:03:20;;;;;;;5.22;4.13;;;9.40;99.90;;;;;;5052460;28;20036;-74
2021/10/25 06:05:46;;;;;;;6.78;5.00;;;9.30;99.90;;;;;;5052084;28;20595;-77
2021/10/25 06:08:14;;;;;;;5.63;4.90;;;9.40;99.90;;;;;;5051731;28;20107;-78
2021/10/25 06:10:40;;;;;;;6.95;4.72;;;9.40;99.90;;;;;;5052446;28;20180;-77
2021/10/25 06:13:08;;;;;;;6.05;4.75;;;9.40;99.90;;;;;;5052872;28;20484;-75
2021/10/25 06:15:41;;;;;;;6.95;4.55;;;9.40;99.90;;;;;;5051807;28;20029;-76
2021/10/25 06:18:08;;;;;;;5.43;4.60;;;9.40;99.90;;;;;;5052251;28;20027;-79
2021/10/25 06:20:37;;;;;;;4.90;4.40;;;9.40;99.90;;;;;;5051848;28;20023;-78
2021/10/25 06:23:08;;;;;;;9.20;4.78;;;9.40;99.90;;;;;;5052663;28;20108;-75
2021/10/25 06:25:34;;;;;;;4.97;4.05;;;9.50;99.90;;;;;;5052440;28;20112;-74
2021/10/25 06:27:59;;;;;;;7.28;4.20;;;9.50;99.90;;;;;;5055818;28;20451;-75
2021/10/25 06:30:25;;;;;;;6.85;4.63;;;9.50;99.90;;;;;;5061737;28;20024;-73
2021/10/25 06:32:51;;;;;;;4.78;4.28;;;9.50;99.90;;;;;;5068151;28;20442;-78
2021/10/25 06:35:22;;;;;;;6.85;3.97;;;9.50;99.90;;;;;;5074779;28;20020;-77
2021/10/25 06:38:21;;;;;;;5.60;3.92;;;9.50;99.90;;;;;;5092977;28;20020;-79
2021/10/25 06:40:40;;;;;;;5.00;4.43;;;9.50;99.90;;;;;;5089982;28;20089;-74
2021/10/25 06:43:09;;;;;;;6.90;4.72;;;9.60;99.90;;;;;;5074468;28;20408;-74
2021/10/25 06:45:34;;;;;;;7.13;4.55;;;9.60;99.90;;;;;;5092472;28;20032;-74
2021/10/25 06:48:00;;;;;;;5.15;4.45;;;9.60;99.90;;;;;;5092516;28;20016;-74
2021/10/25 06:50:26;;;;;;;4.38;3.97;;;9.60;99.90;;;;;;5092723;28;20032;-76
2021/10/25 06:53:05;;;;;;;4.93;4.15;;;9.60;99.90;;;;;;5063964;28;20020;-74
2021/10/25 06:55:31;;;;;;;4.82;4.40;;;9.60;99.90;;;;;;5076470;28;20021;-74
2021/10/25 06:57:58;;;;;;;8.23;5.28;;;9.70;99.90;;;;;;5075103;28;20024;-73
2021/10/25 07:00:23;;;;;;;9.85;4.80;;;9.70;99.90;;;;;;5092149;28;20020;-74
2021/10/25 07:02:49;;;;;;;5.13;4.57;;;9.70;99.90;;;;;;5086439;28;20028;-74
2021/10/25 07:05:15;;;;;;;6.82;4.43;;;9.70;99.90;;;;;;5079196;28;20047;-74
2021/10/25 07:07:40;;;;;;;5.53;4.22;;;9.80;99.90;;;;;;5092051;28;20103;-76
2021/10/25 07:10:08;;;;;;;5.65;4.40;;;9.80;99.90;;;;;;5092319;28;20018;-74
2021/10/25 07:12:34;;;;;;;4.90;4.32;;;9.90;99.90;;;;;;5092850;28;20392;-74
2021/10/25 07:15:00;;;;;;;6.60;4.45;;;9.90;99.90;;;;;;5073596;28;20020;-75
2021/10/25 07:18:07;;;;;;;5.22;3.90;;;9.90;99.90;;;;;;5092650;28;20036;-74
2021/10/25 07:23:11;;;;;;;6.10;4.00;;;10.00;99.90;;;;;;5092661;28;20063;-75
2021/10/25 08:04:26;;;;;;;7.18;4.50;;;10.40;99.90;;;;;;5094905;28;20034;-75
2021/10/25 08:12:15;;;;;;;7.75;5.35;;;10.40;99.90;;;;;;5095883;28;20031;-76
2021/10/25 08:14:47;;;;;;;5.22;4.32;;;10.40;99.90;;;;;;5095609;28;20031;-74
2021/10/25 08:17:19;;;;;;;6.32;5.07;;;10.40;99.90;;;;;;5076770;28;20016;-74
2021/10/25 08:19:45;;;;;;;4.25;3.83;;;10.50;99.90;;;;;;5095716;28;20097;-76
2021/10/25 08:22:15;;;;;;;5.70;4.38;;;10.50;99.90;;;;;;5095303;28;20543;-77
2021/10/25 08:24:43;;;;;;;5.93;4.80;;;10.60;99.90;;;;;;5076609;28;20038;-74
2021/10/25 08:27:10;;;;;;;4.45;4.05;;;10.60;99.90;;;;;;5095075;28;20039;-75
2021/10/25 08:29:39;;;;;;;5.47;4.80;;;10.60;99.90;;;;;;5095273;28;20412;-76
2021/10/25 08:34:47;;;;;;;8.68;4.90;;;10.70;99.90;;;;;;5095523;28;20028;-75
2021/10/25 08:40:02;;;;;;;4.37;3.90;;;10.70;99.90;;;;;;5094939;28;20027;-76
2021/10/25 08:42:29;;;;;;;5.32;3.92;;;10.70;99.90;;;;;;5077210;28;20282;-74
2021/10/25 08:44:59;;;;;;;5.25;4.35;;;10.70;99.90;;;;;;5076402;28;20042;-75
2021/10/25 08:47:31;;;;;;;6.00;4.68;;;10.80;99.90;;;;;;5077068;28;20043;-71
2021/10/25 08:49:56;;;;;;;6.80;4.63;;;10.80;99.90;;;;;;5094764;28;20479;-74
2021/10/25 08:52:25;;;;;;;6.40;4.80;;;10.80;99.90;;;;;;5076137;28;20024;-73
2021/10/25 08:54:52;;;;;;;5.45;4.63;;;10.80;99.90;;;;;;5095005;28;20024;-74
2021/10/25 08:57:23;;;;;;;7.40;5.32;;;10.90;99.90;;;;;;5076354;28;20058;-75
2021/10/25 09:00:22;;;;;;;6.53;4.50;;;10.90;99.90;;;;;;5093947;28;20050;-74
2021/10/25 09:03:02;;;;;;;8.10;5.40;;;10.90;99.90;;;;;;5050895;28;20024;-73
2021/10/25 09:05:28;;;;;;;7.05;4.63;;;10.90;99.90;;;;;;5065213;28;20484;-77
2021/10/25 09:08:00;;;;;;;5.43;3.90;;;10.90;99.90;;;;;;5073737;28;20028;-75
2021/10/25 09:10:27;;;;;;;;;;;10.90;99.90;;;;;;5074817;28;20465;-74
2021/10/25 09:13:26;;;;;;;7.32;5.13;;;11.00;99.90;;;;;;5059479;28;19915;-75
2021/10/25 09:15:55;;;;;;;5.20;4.53;;;11.00;99.90;;;;;;5054739;28;20048;-75
2021/10/25 09:18:24;;;;;;;5.43;4.35;;;11.10;99.90;;;;;;5094297;28;20035;-75
2021/10/25 09:20:58;;;;;;;6.32;4.60;;;11.10;99.90;;;;;;5093773;28;20075;-74
2021/10/25 09:23:42;;;;;;;5.88;4.40;;;11.20;99.90;;;;;;5076203;28;20016;-74
2021/10/25 09:26:16;;;;;;;8.38;4.60;;;11.20;99.90;;;;;;5075888;28;20442;-74
2021/10/25 09:28:52;;;;;;;6.40;5.22;;;11.20;99.90;;;;;;5093662;28;20044;-74
2021/10/25 09:31:25;;;;;;;6.60;5.00;;;11.20;99.90;;;;;;5094008;28;20077;-74
2021/10/25 09:33:59;;;;;;;5.70;4.85;;;11.20;99.90;;;;;;5093749;28;20388;-83
2021/10/25 09:36:32;;;;;;;6.47;4.72;;;11.20;99.90;;;;;;5092640;28;20020;-75
2021/10/25 09:39:07;;;;;;;7.15;5.43;;;11.20;99.90;;;;;;5088416;28;20043;-74
2021/10/25 09:49:58;;;;;;;6.13;4.93;;;11.30;99.90;;;;;;5072754;28;20546;-76
2021/10/25 09:52:37;;;;;;;5.80;4.60;;;11.30;99.90;;;;;;5055638;28;20469;-77
2021/10/25 09:55:06;;;;;;;7.70;5.05;;;11.40;99.90;;;;;;5055140;28;20020;-75
2021/10/25 09:57:41;;;;;;;7.40;5.43;;;11.40;99.90;;;;;;5079106;28;20097;-75
2021/10/25 10:00:09;;;;;;;7.97;4.85;;;11.40;99.90;;;;;;5075288;28;20157;-77
2021/10/25 10:02:36;;;;;;;6.63;4.45;;;11.50;99.90;;;;;;5068174;28;20025;-77
2021/10/25 10:05:05;;;;;;;7.30;4.90;;;11.50;99.90;;;;;;5072785;28;20028;-75
2021/10/25 10:07:31;;;;;;;6.20;5.32;;;11.60;99.90;;;;;;5073358;28;20033;-76
2021/10/25 10:09:57;;;;;;;7.07;5.30;;;11.60;99.90;;;;;;5073342;28;20032;-74
2021/10/25 10:12:26;;;;;;;6.82;5.07;;;11.60;99.90;;;;;;5093914;28;20372;-74
2021/10/25 10:14:54;;;;;;;5.47;4.43;;;11.60;99.90;;;;;;5093489;28;20392;-73
2021/10/25 10:17:48;;;;;;;6.45;4.72;;;11.60;99.90;;;;;;5076524;28;20024;-75
2021/10/25 10:20:20;;;;;;;5.35;4.70;;;11.60;99.90;;;;;;5080430;28;20028;-81
2021/10/25 10:22:50;;;;;;;5.20;4.00;;;11.60;99.90;;;;;;5059574;28;20061;-78
2021/10/25 10:25:46;;;;;;;6.40;4.85;;;11.60;99.90;;;;;;5082735;28;20045;-75
2021/10/25 10:28:13;;;;;;;6.82;5.18;;;11.60;99.90;;;;;;5056478;28;20051;-74
2021/10/25 10:30:58;;;;;;;7.45;5.32;;;11.60;99.90;;;;;;5054712;28;20053;-76
2021/10/25 10:33:39;;;;;;;5.53;4.43;;;11.60;99.90;;;;;;5075626;28;20032;-78
2021/10/25 10:36:14;;;;;;;6.50;4.97;;;11.70;99.90;;;;;;5076031;28;20016;-78
2021/10/25 10:39:00;;;;;;;6.68;4.88;;;11.70;99.90;;;;;;5064979;28;20051;-74
2021/10/25 10:42:06;;;;;;;5.00;4.53;;;11.70;99.90;;;;;;5092036;28;20051;-74
2021/10/25 10:44:32;;;;;;;7.20;4.22;;;11.70;99.90;;;;;;4970753;28;20031;-75
2021/10/25 10:47:02;;;;;;;6.50;4.47;;;11.70;99.90;;;;;;4971342;28;20504;-77
2021/10/25 10:49:36;;;;;;;5.47;4.50;;;11.80;99.90;;;;;;5024322;28;20032;-76
2021/10/25 10:52:51;;;;;;;5.70;3.90;;;11.90;99.90;;;;;;5053477;28;20063;-75
2021/10/25 10:55:18;;;;;;;4.93;4.35;;;11.90;99.90;;;;;;5070246;28;20106;-76
2021/10/25 11:00:44;;;;;;;6.63;4.47;;;12.10;99.90;;;;;;5070360;28;20029;-78
2021/10/25 11:03:21;;;;;;;6.32;5.00;;;12.10;99.90;;;;;;5053860;28;20048;-77
2021/10/25 11:06:10;;;;;;;5.95;4.90;;;12.10;99.90;;;;;;5071431;28;20037;-76
2021/10/25 11:08:38;;;;;;;6.15;4.50;;;12.10;99.90;;;;;;5054263;28;20484;-76
2021/10/25 11:11:06;;;;;;;6.40;4.78;;;12.20;99.90;;;;;;5065626;28;20040;-76
2021/10/25 11:13:35;;;;;;;6.07;5.20;;;12.20;99.90;;;;;;5071635;28;20099;-75
2021/10/25 11:16:19;;;;;;;7.63;4.97;;;12.20;99.90;;;;;;5053982;28;20033;-76
2021/10/25 11:18:51;;;;;;;5.90;4.38;;;12.30;99.90;;;;;;5072319;28;20605;-75
2021/10/25 11:21:26;;;;;;;6.50;5.10;;;12.30;99.90;;;;;;5052745;28;20024;-75
2021/10/25 11:23:55;;;;;;;7.78;4.18;;;12.30;99.90;;;;;;5071232;28;20025;-76
2021/10/25 11:26:28;;;;;;;7.05;4.75;;;12.40;99.90;;;;;;5071908;28;20033;-77
2021/10/25 11:28:55;;;;;;;5.03;4.25;;;12.40;99.90;;;;;;5071688;28;20040;-76
2021/10/25 11:31:21;;;;;;;6.60;5.28;;;12.40;99.90;;;;;;5054344;28;20119;-77
2021/10/25 11:33:48;;;;;;;6.97;4.50;;;12.40;99.90;;;;;;5052491;28;20094;-76
2021/10/25 11:36:14;;;;;;;7.20;4.63;;;12.40;99.90;;;;;;5071805;28;20036;-76
2021/10/25 11:38:44;;;;;;;6.00;4.75;;;12.50;99.90;;;;;;5053796;28;20021;-76
2021/10/25 11:41:10;;;;;;;5.68;4.78;;;12.50;99.90;;;;;;5073833;28;20407;-75
2021/10/25 11:43:35;;;;;;;6.18;4.82;;;12.60;99.90;;;;;;5086756;28;20033;-74
2021/10/25 11:46:12;;;;;;;6.03;4.53;;;12.60;99.90;;;;;;5064647;28;20036;-76
2021/10/25 11:48:38;;;;;;;6.88;4.70;;;12.70;99.90;;;;;;5073274;28;20020;-81
2021/10/25 11:51:06;;;;;;;4.57;4.18;;;12.70;99.90;;;;;;5067197;28;20013;-77
2021/10/25 11:53:32;;;;;;;6.97;5.10;;;12.70;99.90;;;;;;5079941;28;20063;-79
2021/10/25 11:55:58;;;;;;;4.72;4.18;;;12.70;99.90;;;;;;5092082;28;20461;-86
2021/10/25 11:58:26;;;;;;;5.78;5.00;;;12.80;99.90;;;;;;5072253;28;20103;-79
2021/10/25 12:00:55;;;;;;;5.95;5.07;;;12.80;99.90;;;;;;5073941;28;20532;-84
2021/10/25 12:03:24;;;;;;;10.30;5.13;;;12.80;99.90;;;;;;5051973;28;20029;-76
2021/10/25 12:05:50;;;;;;;6.53;5.40;;;12.80;99.90;;;;;;5053153;28;20404;-75
2021/10/25 12:08:17;;;;;;;8.70;5.82;;;12.80;99.90;;;;;;5070575;28;20033;-78
2021/10/25 12:10:44;;;;;;;7.38;5.28;;;12.80;99.90;;;;;;5070528;28;20051;-77
2021/10/25 12:13:12;;;;;;;6.22;4.93;;;12.90;99.90;;;;;;5073172;28;20013;-75
2021/10/25 12:15:59;;;;;;;6.80;4.45;;;13.00;99.90;;;;;;5056440;28;20115;-74
2021/10/25 12:18:26;;;;;;;6.78;5.22;;;13.20;99.90;;;;;;5068989;28;20353;-84
2021/10/25 12:20:52;;;;;;;6.72;5.68;;;13.20;99.90;;;;;;5074768;28;20044;-76
2021/10/25 12:23:20;;;;;;;6.63;5.07;;;13.20;99.90;;;;;;5055951;28;20385;-81
2021/10/25 12:25:55;;;;;;;9.38;5.97;;;13.20;99.90;;;;;;5074972;28;20425;-74
2021/10/25 12:28:23;;;;;;;6.53;5.07;;;13.10;99.90;;;;;;5060762;28;20028;-77
2021/10/25 12:30:52;;;;;;;9.15;5.93;;;13.10;99.90;;;;;;5069749;28;20020;-75
2021/10/25 12:33:22;;;;;;;6.43;5.18;;;13.10;99.90;;;;;;5056057;28;20123;-73
2021/10/25 12:35:48;;;;;;;5.68;5.00;;;13.10;99.90;;;;;;5076315;28;20029;-76
2021/10/25 12:38:17;;;;;;;6.25;4.65;;;13.10;99.90;;;;;;5073956;28;20051;-73
2021/10/25 12:40:46;;;;;;;6.03;4.68;;;13.10;99.90;;;;;;5074920;28;20025;-75
2021/10/25 12:43:12;;;;;;;8.02;4.57;;;13.10;99.90;;;;;;5055554;28;20056;-74
2021/10/25 12:45:44;;;;;;;6.72;5.20;;;13.10;99.90;;;;;;5072186;28;20110;-76
2021/10/25 12:48:14;;;;;;;6.13;5.13;;;13.00;99.90;;;;;;5056322;28;20044;-78
2021/10/25 12:50:42;;;;;;;6.18;4.40;;;13.10;99.90;;;;;;5087977;28;20457;-74
2021/10/25 12:53:13;;;;;;;6.95;5.13;;;13.20;99.90;;;;;;5055199;28;20027;-76
2021/10/25 12:55:40;;;;;;;6.55;5.40;;;13.10;99.90;;;;;;5074052;28;20040;-75
2021/10/25 12:58:11;;;;;;;5.47;4.47;;;13.10;99.90;;;;;;5055671;28;20027;-77
2021/10/25 13:00:38;;;;;;;6.40;5.10;;;13.00;99.90;;;;;;5074780;28;20021;-88
2021/10/25 13:03:12;;;;;;;7.63;5.47;;;13.00;99.90;;;;;;5074514;28;20051;-75
2021/10/25 13:05:39;;;;;;;6.43;4.82;;;13.00;99.90;;;;;;5053317;28;20504;-73
2021/10/25 13:08:09;;;;;;;6.07;4.68;;;13.00;99.90;;;;;;5070733;28;20056;-74
2021/10/25 13:10:36;;;;;;;6.30;5.40;;;13.00;99.90;;;;;;5070555;28;20031;-74
2021/10/25 13:13:04;;;;;;;8.93;5.75;;;13.10;99.90;;;;;;5074333;28;20020;-74
2021/10/25 13:15:30;;;;;;;8.63;5.32;;;13.20;99.90;;;;;;5091142;28;20024;-76
2021/10/25 13:17:58;;;;;;;6.70;5.38;;;13.30;99.90;;;;;;5068917;28;20073;-73
2021/10/25 13:20:27;;;;;;;6.53;5.35;;;13.30;99.90;;;;;;5083998;28;20051;-77
2021/10/25 13:22:56;;;;;;;7.50;4.95;;;13.40;99.90;;;;;;5072634;28;20443;-77
2021/10/25 13:25:22;;;;;;;6.85;4.80;;;13.40;99.90;;;;;;5052563;28;20024;-74
2021/10/25 13:27:49;;;;;;;6.72;5.00;;;13.50;99.90;;;;;;5069747;28;20576;-73
2021/10/25 13:30:17;;;;;;;5.90;4.80;;;13.50;99.90;;;;;;5077164;28;20044;-73
2021/10/25 13:32:44;;;;;;;6.78;5.35;;;13.60;99.90;;;;;;5079919;28;20028;-74
2021/10/25 13:35:11;;;;;;;10.38;5.70;;;13.60;99.90;;;;;;5069952;28;20078;-76
2021/10/25 13:37:37;;;;;;;6.10;5.30;;;13.70;99.90;;;;;;5054380;28;20033;-75
2021/10/25 13:40:07;;;;;;;5.82;5.05;;;13.70;99.90;;;;;;5051611;28;20032;-74
2021/10/25 13:42:34;;;;;;;8.27;5.18;;;13.70;99.90;;;;;;5081446;28;20059;-78
2021/10/25 13:44:59;;;;;;;7.25;4.90;;;13.70;99.90;;;;;;5090205;28;20074;-74
2021/10/25 13:47:26;;;;;;;6.88;4.63;;;13.70;99.90;;;;;;5089081;28;20072;-77
2021/10/25 13:49:56;;;;;;;6.18;5.20;;;13.70;99.90;;;;;;5072387;28;20020;-74
2021/10/25 13:52:25;;;;;;;5.88;5.20;;;13.70;99.90;;;;;;5088897;28;20024;-77
2021/10/25 13:54:51;;;;;;;7.03;5.05;;;13.70;99.90;;;;;;5083365;28;20507;-75
2021/10/25 13:57:27;;;;;;;6.40;5.30;;;13.70;99.90;;;;;;5061860;28;20020;-76
2021/10/25 13:59:53;;;;;;;7.03;4.72;;;13.70;99.90;;;;;;5073232;28;20027;-76
2021/10/25 14:02:28;;;;;;;6.30;5.00;;;13.80;99.90;;;;;;5089607;28;20039;-74
2021/10/25 14:04:57;;;;;;;6.65;5.13;;;13.80;99.90;;;;;;5057276;28;20021;-76
2021/10/25 14:07:29;;;;;;;6.57;5.00;;;13.90;99.90;;;;;;5069780;28;20042;-80
2021/10/25 14:10:00;;;;;;;5.72;4.82;;;13.90;99.90;;;;;;5068924;28;20048;-77
2021/10/25 14:12:28;;;;;;;7.95;5.57;;;13.90;99.90;;;;;;5073929;28;20020;-78
2021/10/25 14:15:04;;;;;;;7.45;5.30;;;13.90;99.90;;;;;;5090244;28;20043;-77
2021/10/25 14:17:29;;;;;;;11.55;5.80;;;13.90;99.90;;;;;;5089343;28;20020;-74
2021/10/25 14:19:55;;;;;;;9.60;6.00;;;13.90;99.90;;;;;;5071912;28;20290;-76
2021/10/25 14:22:21;;;;;;;7.50;5.55;;;14.00;99.90;;;;;;5084423;28;20035;-73
2021/10/25 14:24:47;;;;;;;7.72;5.63;;;13.90;99.90;;;;;;5071323;28;20032;-81
2021/10/25 14:27:13;;;;;;;8.93;5.80;;;13.90;99.90;;;;;;5083324;28;20042;-73
2021/10/25 14:29:39;;;;;;;6.47;5.18;;;13.90;99.90;;;;;;5050921;28;20102;-73
2021/10/25 14:32:07;;;;;;;6.15;5.55;;;13.90;99.90;;;;;;5076452;28;20435;-77